GLD1410 SBRJ-SBGR
Flight info
| Callsign | GLD1410 |
|---|---|
| Flight time | 0h 43m |
| Altitude | 3000 |
| Route | DCT ESORU DCT EDMUS DCT |
| Aircraft | C700/M-SDFGIRY/S |
Departure
| Time | 2026-05-06 23:59 |
|---|---|
| Airport | Santos Dumont Airport (SBRJ) |
Arrival
| Time | 2026-05-07 00:42 |
|---|---|
| Airport | São Paulo/Guarulhos–Governor André Franco Montoro International Airport (SBGR) |
| Time | Latitude | Longitude | Altitude | Speed | Heading |
|---|---|---|---|---|---|
| 2026-05-06 23:54 | -22.90820 | -43.16610 | 16 ft | 0 kts | 266° |
| 2026-05-06 23:56 | -22.90810 | -43.16611 | 17 ft | 4 kts | 18° |
| 2026-05-06 23:56 | -22.90752 | -43.16562 | 16 ft | 18 kts | 38° |
| 2026-05-06 23:56 | -22.90594 | -43.16551 | 18 ft | 11 kts | 354° |
| 2026-05-06 23:57 | -22.90512 | -43.16547 | 16 ft | 13 kts | 37° |
| 2026-05-06 23:57 | -22.90499 | -43.16510 | 16 ft | 0 kts | 88° |
| 2026-05-06 23:57 | -22.90498 | -43.16492 | 17 ft | 11 kts | 88° |
| 2026-05-06 23:57 | -22.90490 | -43.16367 | 17 ft | 14 kts | 84° |
| 2026-05-06 23:58 | -22.90520 | -43.16316 | 20 ft | 0 kts | 179° |
| 2026-05-06 23:58 | -22.90658 | -43.16311 | 20 ft | 63 kts | 178° |
| 2026-05-06 23:58 | -22.91408 | -43.16263 | 47 ft | 147 kts | 177° |
| 2026-05-06 23:59 | -22.92524 | -43.16042 | 829 ft | 173 kts | 157° |
| 2026-05-06 23:59 | -22.93590 | -43.15312 | 1815 ft | 189 kts | 132° |
| 2026-05-06 23:59 | -22.94464 | -43.14196 | 2939 ft | 199 kts | 127° |
| 2026-05-06 23:59 | -22.95437 | -43.13084 | 4119 ft | 209 kts | 138° |
| 2026-05-07 00:00 | -22.96577 | -43.12067 | 5397 ft | 215 kts | 137° |
| 2026-05-07 00:00 | -22.97781 | -43.11062 | 6672 ft | 223 kts | 150° |
| 2026-05-07 00:00 | -22.99279 | -43.10558 | 7855 ft | 228 kts | 168° |
| 2026-05-07 00:00 | -23.00855 | -43.10579 | 8122 ft | 235 kts | 192° |
| 2026-05-07 00:01 | -23.02476 | -43.11298 | 8136 ft | 275 kts | 212° |
| 2026-05-07 00:01 | -23.03831 | -43.12798 | 8096 ft | 286 kts | 237° |
| 2026-05-07 00:01 | -23.04525 | -43.14840 | 8096 ft | 292 kts | 263° |
| 2026-05-07 00:01 | -23.04312 | -43.17028 | 8578 ft | 292 kts | 291° |
| 2026-05-07 00:02 | -23.03354 | -43.18920 | 10163 ft | 287 kts | 310° |
| 2026-05-07 00:02 | -23.01966 | -43.20594 | 11030 ft | 311 kts | 314° |
| 2026-05-07 00:02 | -23.00445 | -43.22349 | 12131 ft | 322 kts | 314° |
| 2026-05-07 00:02 | -22.99154 | -43.23855 | 13240 ft | 327 kts | 313° |
| 2026-05-07 00:03 | -22.97507 | -43.25814 | 14516 ft | 336 kts | 312° |
| 2026-05-07 00:03 | -22.95914 | -43.27707 | 15538 ft | 344 kts | 311° |
| 2026-05-07 00:03 | -22.94272 | -43.29646 | 16561 ft | 353 kts | 311° |
| 2026-05-07 00:03 | -22.92595 | -43.31622 | 17650 ft | 359 kts | 311° |
| 2026-05-07 00:04 | -22.90908 | -43.33645 | 18687 ft | 365 kts | 309° |
| 2026-05-07 00:04 | -22.89235 | -43.35731 | 19668 ft | 368 kts | 310° |
| 2026-05-07 00:04 | -22.87544 | -43.37781 | 20663 ft | 371 kts | 310° |
| 2026-05-07 00:04 | -22.85817 | -43.39880 | 21655 ft | 375 kts | 310° |
| 2026-05-07 00:05 | -22.84084 | -43.42015 | 22620 ft | 379 kts | 310° |
| 2026-05-07 00:05 | -22.82357 | -43.44139 | 23519 ft | 383 kts | 310° |
| 2026-05-07 00:05 | -22.80580 | -43.46314 | 24305 ft | 388 kts | 310° |
| 2026-05-07 00:05 | -22.78777 | -43.48516 | 25060 ft | 393 kts | 310° |
| 2026-05-07 00:06 | -22.76954 | -43.50744 | 25831 ft | 398 kts | 309° |
| 2026-05-07 00:06 | -22.75122 | -43.53012 | 26585 ft | 402 kts | 307° |
| 2026-05-07 00:06 | -22.73594 | -43.55553 | 27287 ft | 404 kts | 295° |
| 2026-05-07 00:06 | -22.72496 | -43.58356 | 27998 ft | 406 kts | 285° |
| 2026-05-07 00:07 | -22.71870 | -43.61340 | 28716 ft | 407 kts | 275° |
| 2026-05-07 00:07 | -22.71742 | -43.64359 | 29426 ft | 408 kts | 264° |
| 2026-05-07 00:07 | -22.72074 | -43.67412 | 30096 ft | 412 kts | 258° |
| 2026-05-07 00:07 | -22.72508 | -43.70560 | 30119 ft | 433 kts | 259° |
| 2026-05-07 00:08 | -22.72950 | -43.73859 | 30127 ft | 453 kts | 259° |
| 2026-05-07 00:08 | -22.73505 | -43.77285 | 30130 ft | 469 kts | 253° |
| 2026-05-07 00:08 | -22.75645 | -43.84056 | 30127 ft | 479 kts | 248° |
| 2026-05-07 00:09 | -22.77886 | -43.90860 | 30132 ft | 479 kts | 248° |
| 2026-05-07 00:09 | -22.80129 | -43.97617 | 30139 ft | 479 kts | 248° |
| 2026-05-07 00:10 | -22.82371 | -44.04418 | 30151 ft | 478 kts | 248° |
| 2026-05-07 00:10 | -22.84608 | -44.11195 | 30166 ft | 477 kts | 247° |
| 2026-05-07 00:11 | -22.86840 | -44.17976 | 30164 ft | 479 kts | 247° |
| 2026-05-07 00:11 | -22.89056 | -44.24721 | 30161 ft | 477 kts | 247° |
| 2026-05-07 00:12 | -22.91282 | -44.31501 | 30164 ft | 476 kts | 247° |
| 2026-05-07 00:12 | -22.93494 | -44.38259 | 30170 ft | 475 kts | 247° |
| 2026-05-07 00:13 | -22.95708 | -44.45021 | 30164 ft | 474 kts | 248° |
| 2026-05-07 00:13 | -22.97914 | -44.51781 | 30168 ft | 475 kts | 247° |
| 2026-05-07 00:14 | -23.00102 | -44.58497 | 30173 ft | 475 kts | 248° |
| 2026-05-07 00:14 | -23.02305 | -44.65254 | 30166 ft | 473 kts | 248° |
| 2026-05-07 00:15 | -23.04077 | -44.72158 | 30171 ft | 477 kts | 253° |
| 2026-05-07 00:15 | -23.05685 | -44.79127 | 30175 ft | 476 kts | 252° |
| 2026-05-07 00:16 | -23.07223 | -44.86070 | 30171 ft | 476 kts | 253° |
| 2026-05-07 00:16 | -23.08799 | -44.93045 | 30172 ft | 475 kts | 253° |
| 2026-05-07 00:17 | -23.10354 | -45.00020 | 30175 ft | 476 kts | 253° |
| 2026-05-07 00:17 | -23.11914 | -45.06999 | 30177 ft | 475 kts | 253° |
| 2026-05-07 00:18 | -23.12690 | -45.10475 | 29683 ft | 468 kts | 253° |
| 2026-05-07 00:18 | -23.13435 | -45.13845 | 29077 ft | 450 kts | 253° |
| 2026-05-07 00:18 | -23.14145 | -45.17049 | 28498 ft | 436 kts | 253° |
| 2026-05-07 00:18 | -23.14857 | -45.20226 | 27925 ft | 430 kts | 253° |
| 2026-05-07 00:19 | -23.15561 | -45.23381 | 27357 ft | 430 kts | 253° |
| 2026-05-07 00:19 | -23.16260 | -45.26542 | 26787 ft | 430 kts | 254° |
| 2026-05-07 00:19 | -23.16957 | -45.29697 | 26225 ft | 429 kts | 254° |
| 2026-05-07 00:19 | -23.17655 | -45.32848 | 25665 ft | 430 kts | 254° |
| 2026-05-07 00:20 | -23.18369 | -45.36064 | 25572 ft | 447 kts | 254° |
| 2026-05-07 00:20 | -23.19098 | -45.39365 | 25572 ft | 451 kts | 254° |
| 2026-05-07 00:20 | -23.19822 | -45.42645 | 25572 ft | 453 kts | 254° |
| 2026-05-07 00:20 | -23.20555 | -45.45948 | 25190 ft | 445 kts | 254° |
| 2026-05-07 00:21 | -23.21267 | -45.49161 | 24618 ft | 430 kts | 254° |
| 2026-05-07 00:21 | -23.21960 | -45.52289 | 24059 ft | 421 kts | 255° |
| 2026-05-07 00:21 | -23.22642 | -45.55359 | 23464 ft | 416 kts | 254° |
| 2026-05-07 00:21 | -23.23443 | -45.58365 | 22811 ft | 413 kts | 251° |
| 2026-05-07 00:22 | -23.24286 | -45.61340 | 22176 ft | 411 kts | 251° |
| 2026-05-07 00:22 | -23.25111 | -45.64309 | 21556 ft | 409 kts | 251° |
| 2026-05-07 00:22 | -23.25917 | -45.67268 | 20949 ft | 407 kts | 251° |
| 2026-05-07 00:22 | -23.26713 | -45.70166 | 20365 ft | 405 kts | 251° |
| 2026-05-07 00:23 | -23.27523 | -45.73091 | 19782 ft | 403 kts | 251° |
| 2026-05-07 00:23 | -23.28329 | -45.76005 | 19210 ft | 401 kts | 251° |
| 2026-05-07 00:23 | -23.29126 | -45.78906 | 18648 ft | 399 kts | 251° |
| 2026-05-07 00:23 | -23.29916 | -45.81787 | 18034 ft | 397 kts | 251° |
| 2026-05-07 00:24 | -23.30706 | -45.84658 | 17398 ft | 395 kts | 251° |
| 2026-05-07 00:24 | -23.31478 | -45.87468 | 16781 ft | 392 kts | 252° |
| 2026-05-07 00:24 | -23.32267 | -45.90344 | 16169 ft | 390 kts | 251° |
| 2026-05-07 00:24 | -23.33046 | -45.93162 | 15571 ft | 388 kts | 251° |
| 2026-05-07 00:25 | -23.33854 | -45.95961 | 15233 ft | 398 kts | 251° |
| 2026-05-07 00:25 | -23.34693 | -45.98873 | 15236 ft | 408 kts | 252° |
| 2026-05-07 00:25 | -23.35522 | -46.01830 | 15229 ft | 406 kts | 252° |
| 2026-05-07 00:25 | -23.36328 | -46.04718 | 15079 ft | 392 kts | 252° |
| 2026-05-07 00:26 | -23.37126 | -46.07531 | 14860 ft | 387 kts | 251° |
| 2026-05-07 00:26 | -23.37921 | -46.10320 | 14622 ft | 385 kts | 252° |
| 2026-05-07 00:26 | -23.38705 | -46.13101 | 14379 ft | 384 kts | 252° |
| 2026-05-07 00:26 | -23.39484 | -46.15877 | 14124 ft | 383 kts | 252° |
| 2026-05-07 00:27 | -23.40264 | -46.18648 | 13881 ft | 382 kts | 252° |
| 2026-05-07 00:27 | -23.41042 | -46.21402 | 13617 ft | 380 kts | 252° |
| 2026-05-07 00:27 | -23.41804 | -46.24115 | 13368 ft | 379 kts | 252° |
| 2026-05-07 00:27 | -23.42328 | -46.26918 | 13117 ft | 379 kts | 264° |
| 2026-05-07 00:28 | -23.42316 | -46.29775 | 12879 ft | 377 kts | 276° |
| 2026-05-07 00:28 | -23.41790 | -46.32557 | 12631 ft | 375 kts | 287° |
| 2026-05-07 00:28 | -23.40782 | -46.35151 | 12389 ft | 371 kts | 299° |
| 2026-05-07 00:28 | -23.39406 | -46.37509 | 12152 ft | 368 kts | 304° |
| 2026-05-07 00:29 | -23.37997 | -46.39830 | 11912 ft | 367 kts | 304° |
| 2026-05-07 00:29 | -23.36668 | -46.42046 | 11683 ft | 366 kts | 304° |
| 2026-05-07 00:30 | -23.32457 | -46.49001 | 11184 ft | 375 kts | 304° |
| 2026-05-07 00:30 | -23.31049 | -46.51337 | 11038 ft | 361 kts | 305° |
| 2026-05-07 00:30 | -23.29719 | -46.53543 | 10804 ft | 338 kts | 304° |
| 2026-05-07 00:30 | -23.28463 | -46.55613 | 10558 ft | 319 kts | 305° |
| 2026-05-07 00:31 | -23.27267 | -46.57583 | 10320 ft | 305 kts | 304° |
| 2026-05-07 00:31 | -23.26256 | -46.59551 | 10074 ft | 295 kts | 293° |
| 2026-05-07 00:31 | -23.25628 | -46.61655 | 9853 ft | 291 kts | 289° |
| 2026-05-07 00:31 | -23.24993 | -46.63677 | 9615 ft | 273 kts | 291° |
| 2026-05-07 00:32 | -23.24388 | -46.65578 | 9408 ft | 262 kts | 290° |
| 2026-05-07 00:32 | -23.23801 | -46.67484 | 9203 ft | 272 kts | 289° |
| 2026-05-07 00:32 | -23.23507 | -46.69503 | 9159 ft | 278 kts | 271° |
| 2026-05-07 00:32 | -23.23739 | -46.71600 | 9157 ft | 283 kts | 259° |
| 2026-05-07 00:33 | -23.24149 | -46.73729 | 8835 ft | 289 kts | 259° |
| 2026-05-07 00:33 | -23.24536 | -46.75858 | 8495 ft | 285 kts | 259° |
| 2026-05-07 00:33 | -23.24920 | -46.77961 | 8154 ft | 282 kts | 259° |
| 2026-05-07 00:33 | -23.25566 | -46.79938 | 7931 ft | 277 kts | 240° |
| 2026-05-07 00:34 | -23.26728 | -46.81599 | 7726 ft | 277 kts | 224° |
| 2026-05-07 00:34 | -23.28284 | -46.82822 | 7520 ft | 276 kts | 206° |
| 2026-05-07 00:34 | -23.30091 | -46.83495 | 7313 ft | 275 kts | 190° |
| 2026-05-07 00:34 | -23.31952 | -46.83565 | 7206 ft | 269 kts | 172° |
| 2026-05-07 00:35 | -23.33760 | -46.83062 | 7205 ft | 269 kts | 156° |
| 2026-05-07 00:35 | -23.35356 | -46.82021 | 7209 ft | 269 kts | 140° |
| 2026-05-07 00:35 | -23.36614 | -46.80528 | 7210 ft | 265 kts | 123° |
| 2026-05-07 00:35 | -23.37587 | -46.78900 | 7214 ft | 249 kts | 122° |
| 2026-05-07 00:36 | -23.38529 | -46.77367 | 7130 ft | 239 kts | 121° |
| 2026-05-07 00:36 | -23.39418 | -46.75906 | 6960 ft | 226 kts | 122° |
| 2026-05-07 00:36 | -23.40264 | -46.74502 | 6756 ft | 217 kts | 122° |
| 2026-05-07 00:36 | -23.41083 | -46.73154 | 6553 ft | 210 kts | 121° |
| 2026-05-07 00:37 | -23.41875 | -46.71843 | 6323 ft | 205 kts | 121° |
| 2026-05-07 00:37 | -23.42640 | -46.70580 | 6241 ft | 200 kts | 122° |
| 2026-05-07 00:37 | -23.43432 | -46.69299 | 6135 ft | 209 kts | 123° |
| 2026-05-07 00:37 | -23.44276 | -46.67974 | 5784 ft | 214 kts | 122° |
| 2026-05-07 00:38 | -23.45115 | -46.66639 | 5454 ft | 213 kts | 122° |
| 2026-05-07 00:38 | -23.45945 | -46.65310 | 5122 ft | 212 kts | 123° |
| 2026-05-07 00:38 | -23.46728 | -46.63994 | 4920 ft | 204 kts | 117° |
| 2026-05-07 00:38 | -23.47040 | -46.62523 | 4701 ft | 200 kts | 87° |
| 2026-05-07 00:39 | -23.47241 | -46.61062 | 4439 ft | 200 kts | 120° |
| 2026-05-07 00:39 | -23.48303 | -46.60126 | 4389 ft | 198 kts | 149° |
| 2026-05-07 00:39 | -23.49193 | -46.59084 | 4371 ft | 189 kts | 107° |
| 2026-05-07 00:39 | -23.49019 | -46.57759 | 4383 ft | 180 kts | 55° |
| 2026-05-07 00:40 | -23.48009 | -46.56965 | 4377 ft | 180 kts | 29° |
| 2026-05-07 00:40 | -23.46951 | -46.56260 | 4283 ft | 179 kts | 41° |
| 2026-05-07 00:40 | -23.46077 | -46.55294 | 4140 ft | 178 kts | 54° |
| 2026-05-07 00:40 | -23.45424 | -46.54188 | 4018 ft | 161 kts | 67° |
| 2026-05-07 00:41 | -23.45052 | -46.53062 | 3473 ft | 163 kts | 75° |
| 2026-05-07 00:41 | -23.44754 | -46.51959 | 3289 ft | 143 kts | 77° |
| 2026-05-07 00:41 | -23.44506 | -46.50978 | 3006 ft | 132 kts | 75° |
| 2026-05-07 00:41 | -23.44253 | -46.50047 | 2756 ft | 121 kts | 74° |
| 2026-05-07 00:42 | -23.44013 | -46.49189 | 2591 ft | 116 kts | 75° |
| 2026-05-07 00:42 | -23.43780 | -46.48360 | 2475 ft | 109 kts | 76° |
| 2026-05-07 00:42 | -23.43605 | -46.47692 | 2469 ft | 67 kts | 76° |
| 2026-05-07 00:42 | -23.43559 | -46.47501 | 2467 ft | 12 kts | 74° |
| 2026-05-07 00:43 | -23.43525 | -46.47377 | 2467 ft | 23 kts | 73° |
| 2026-05-07 00:43 | -23.43533 | -46.47285 | 2467 ft | 5 kts | 147° |
| 2026-05-07 00:43 | -23.43563 | -46.47276 | 2467 ft | 5 kts | 163° |
| 2026-05-07 00:43 | -23.43608 | -46.47261 | 2466 ft | 8 kts | 163° |
| 2026-05-07 00:44 | -23.43677 | -46.47291 | 2466 ft | 18 kts | 247° |
| 2026-05-07 00:44 | -23.43716 | -46.47434 | 2466 ft | 21 kts | 254° |
| 2026-05-07 00:44 | -23.43757 | -46.47588 | 2467 ft | 22 kts | 254° |
| 2026-05-07 00:44 | -23.43801 | -46.47756 | 2467 ft | 24 kts | 254° |
| 2026-05-07 00:45 | -23.43854 | -46.47934 | 2467 ft | 25 kts | 251° |
| 2026-05-07 00:45 | -23.43963 | -46.48068 | 2467 ft | 26 kts | 198° |